createdAt,value
2018-04-18T00:01:42.646Z,13.96
2018-04-18T00:04:13.406Z,13.28
2018-04-18T00:06:45.483Z,13.39
2018-04-18T00:09:18.319Z,13.54
2018-04-18T00:11:50.323Z,14.02
2018-04-18T00:14:22.283Z,14.61
2018-04-18T00:16:55.610Z,15.07
2018-04-18T00:19:29.279Z,15.24
2018-04-18T00:22:01.313Z,15.55
2018-04-18T00:26:38.615Z,15.94
2018-04-18T00:29:09.496Z,16.17
2018-04-18T00:31:41.411Z,16.39
2018-04-18T00:36:44.210Z,16.90
2018-04-18T00:41:07.515Z,17.42
2018-04-18T00:43:39.286Z,17.44
2018-04-18T00:46:11.174Z,17.55
2018-04-18T00:48:43.231Z,18.00
2018-04-18T00:51:15.576Z,18.10
2018-04-18T00:53:46.064Z,18.15
2018-04-18T00:58:30.404Z,18.53
2018-04-18T01:02:35.213Z,18.64
2018-04-18T01:05:08.487Z,18.77
2018-04-18T01:07:40.275Z,18.90
2018-04-18T01:10:14.243Z,19.11
2018-04-18T01:12:46.411Z,19.37
2018-04-18T01:15:18.460Z,19.40
2018-04-18T01:17:50.238Z,19.66
2018-04-18T01:20:22.239Z,19.76
2018-04-18T01:22:54.229Z,19.86
2018-04-18T01:25:27.214Z,19.97
2018-04-18T01:27:59.219Z,20.23
2018-04-18T01:30:32.269Z,20.21
2018-04-18T01:33:05.574Z,20.18
2018-04-18T01:35:37.618Z,20.44
2018-04-18T01:39:26.444Z,20.32
2018-04-18T01:42:00.094Z,20.58
2018-04-18T01:44:32.231Z,20.61
2018-04-18T01:47:04.243Z,20.80
2018-04-18T01:49:36.254Z,20.75
2018-04-18T01:52:08.375Z,20.92
2018-04-18T01:54:40.423Z,21.12
2018-04-18T01:57:12.500Z,21.17
2018-04-18T01:59:44.274Z,21.24
2018-04-18T02:02:17.256Z,21.36
2018-04-18T02:04:51.094Z,21.43
2018-04-18T02:07:23.443Z,21.34
2018-04-18T02:09:55.442Z,21.37
2018-04-18T02:12:27.569Z,21.53
2018-04-18T02:14:59.476Z,21.51
2018-04-18T02:17:31.492Z,21.57
2018-04-18T02:20:04.286Z,21.78
2018-04-18T02:22:36.493Z,22.01
2018-04-18T02:25:08.295Z,21.96
2018-04-18T02:27:41.295Z,22.17
2018-04-18T02:30:14.534Z,22.04
2018-04-18T02:32:46.522Z,22.24
2018-04-18T02:35:19.571Z,22.56
2018-04-18T02:37:51.119Z,22.58
2018-04-18T02:41:52.079Z,22.79
2018-04-18T02:44:24.762Z,22.69
2018-04-18T02:46:57.640Z,22.94
2018-04-18T02:49:30.486Z,23.01
2018-04-18T02:52:02.566Z,23.14
2018-04-18T02:54:35.717Z,23.32
2018-04-18T02:57:07.642Z,23.38
2018-04-18T02:59:40.497Z,23.55
2018-04-18T03:02:12.563Z,23.84
2018-04-18T03:07:29.487Z,24.19
2018-04-18T03:10:01.487Z,24.31
2018-04-18T03:12:33.643Z,24.38
2018-04-18T03:15:05.503Z,24.60
2018-04-18T03:18:17.480Z,24.82
2018-04-18T03:20:49.484Z,24.91
2018-04-18T03:23:21.314Z,25.10
2018-04-18T03:27:54.558Z,25.18
2018-04-18T03:30:25.468Z,25.27
2018-04-18T03:32:57.473Z,25.39
2018-04-18T03:35:29.278Z,25.52
2018-04-18T03:38:01.121Z,25.55
2018-04-18T03:40:33.239Z,25.67
2018-04-18T03:43:05.484Z,25.87
2018-04-18T03:45:37.555Z,26.01
2018-04-18T03:48:08.474Z,26.00
2018-04-18T03:50:40.563Z,26.26
2018-04-18T03:53:11.104Z,26.28
2018-04-18T03:55:43.448Z,26.48
2018-04-18T03:58:15.309Z,26.53
2018-04-18T04:00:47.257Z,26.58
2018-04-18T04:03:19.263Z,26.83
2018-04-18T04:05:51.607Z,26.87
2018-04-18T04:08:22.226Z,27.17
2018-04-18T04:10:54.561Z,27.27
2018-04-18T04:13:25.094Z,27.26
2018-04-18T04:18:45.721Z,27.73
2018-04-18T04:21:57.263Z,27.74
2018-04-18T04:24:46.637Z,27.64
2018-04-18T04:27:18.571Z,28.03
2018-04-18T04:29:50.501Z,27.87
2018-04-18T04:32:22.501Z,28.16
2018-04-18T04:34:54.289Z,28.26
2018-04-18T04:37:26.282Z,28.09
2018-04-18T04:39:58.270Z,28.27
2018-04-18T04:42:30.281Z,28.43
2018-04-18T04:45:03.296Z,28.21
2018-04-18T04:47:35.507Z,28.24
2018-04-18T04:50:07.519Z,28.53
2018-04-18T04:52:39.644Z,28.49
2018-04-18T04:55:10.358Z,28.61
2018-04-18T04:57:42.313Z,28.61
2018-04-18T05:00:14.547Z,28.65
2018-04-18T05:02:46.510Z,28.67
2018-04-18T05:05:18.506Z,29.05
2018-04-18T05:07:52.611Z,29.00
2018-04-18T05:10:24.540Z,28.71
2018-04-18T05:12:56.602Z,28.79
2018-04-18T05:15:27.541Z,28.83
2018-04-18T05:18:42.522Z,30.12
2018-04-18T05:21:14.511Z,29.91
2018-04-18T05:23:48.250Z,29.83
2018-04-18T05:26:21.614Z,30.69
2018-04-18T05:28:52.523Z,29.87
2018-04-18T05:31:24.288Z,30.18
2018-04-18T05:33:56.266Z,30.09
2018-04-18T05:36:30.241Z,29.64
2018-04-18T05:40:37.634Z,30.35
2018-04-18T05:43:10.351Z,30.17
2018-04-18T05:45:43.271Z,29.79
2018-04-18T05:48:15.450Z,30.04
2018-04-18T05:50:48.817Z,30.26
2018-04-18T05:53:21.259Z,30.08
2018-04-18T05:55:54.377Z,30.01
2018-04-18T05:58:27.586Z,29.60
2018-04-18T06:00:58.493Z,29.83
2018-04-18T06:03:30.947Z,30.08
2018-04-18T06:06:03.277Z,29.60
2018-04-18T06:08:37.098Z,29.57
2018-04-18T06:13:59.253Z,29.87
2018-04-18T06:16:31.265Z,29.57
2018-04-18T06:19:03.514Z,29.25
2018-04-18T06:23:19.297Z,29.53
2018-04-18T06:25:51.598Z,29.88
2018-04-18T06:28:23.130Z,30.21
2018-04-18T06:30:56.870Z,29.96
2018-04-18T06:33:30.274Z,30.46
2018-04-18T06:36:03.289Z,30.38
2018-04-18T06:38:35.531Z,30.39
2018-04-18T06:41:09.355Z,30.24
2018-04-18T06:43:42.496Z,30.25
2018-04-18T06:46:14.445Z,30.11
2018-04-18T06:48:46.261Z,30.43
2018-04-18T06:51:19.558Z,30.31
2018-04-18T06:53:51.886Z,30.29
2018-04-18T06:58:53.502Z,30.11
2018-04-18T07:01:25.603Z,30.40
2018-04-18T07:05:04.615Z,30.56
2018-04-18T07:07:35.523Z,30.46
2018-04-18T07:10:07.653Z,30.72
2018-04-18T07:12:39.547Z,30.47
2018-04-18T07:15:13.266Z,30.94
2018-04-18T07:17:46.305Z,31.07
2018-04-18T07:20:18.640Z,31.08
2018-04-18T07:24:36.687Z,30.92
2018-04-18T07:27:09.730Z,31.04
2018-04-18T07:29:40.518Z,30.98
2018-04-18T07:32:12.696Z,31.04
2018-04-18T07:34:43.663Z,31.53
2018-04-18T07:37:14.595Z,31.93
2018-04-18T07:39:46.522Z,31.71
2018-04-18T07:42:19.541Z,32.00
2018-04-18T07:45:29.264Z,32.02
2018-04-18T07:48:02.595Z,31.90
2018-04-18T07:50:35.116Z,31.85
2018-04-18T07:53:08.633Z,31.85
2018-04-18T07:55:40.545Z,31.81
2018-04-18T07:58:12.573Z,31.99
2018-04-18T08:00:44.557Z,31.70
2018-04-18T08:03:17.648Z,32.12
2018-04-18T08:08:00.272Z,32.03
2018-04-18T08:10:33.557Z,32.16
2018-04-18T08:13:05.546Z,32.37
2018-04-18T08:15:38.037Z,31.78
2018-04-18T08:18:11.615Z,32.35
2018-04-18T08:20:43.796Z,32.69
2018-04-18T08:23:16.667Z,32.74
2018-04-18T08:25:50.082Z,32.89
2018-04-18T08:28:23.257Z,32.55
2018-04-18T08:30:56.263Z,33.20
2018-04-18T08:33:29.526Z,32.91
2018-04-18T08:36:02.474Z,32.99
2018-04-18T08:38:36.337Z,33.67
2018-04-18T08:41:10.066Z,33.81
2018-04-18T08:43:43.493Z,33.14
2018-04-18T08:46:16.547Z,33.32
2018-04-18T08:48:49.967Z,33.66
2018-04-18T08:51:23.056Z,33.86
2018-04-18T08:53:56.259Z,33.78
2018-04-18T08:56:29.598Z,33.84
2018-04-18T08:59:02.297Z,33.78
2018-04-18T09:01:36.078Z,33.70
2018-04-18T09:04:09.298Z,33.33
2018-04-18T09:06:42.282Z,33.75
2018-04-18T09:09:15.580Z,34.04
2018-04-18T09:11:49.237Z,34.03
2018-04-18T09:16:42.055Z,33.75
2018-04-18T09:19:15.265Z,34.16
2018-04-18T09:21:48.258Z,33.89
2018-04-18T09:24:22.369Z,34.18
2018-04-18T09:26:55.287Z,33.75
2018-04-18T09:29:28.550Z,34.00
2018-04-18T09:32:02.101Z,33.98
2018-04-18T09:34:35.272Z,34.43
2018-04-18T09:37:08.634Z,34.57
2018-04-18T09:39:40.542Z,34.38
2018-04-18T09:42:13.818Z,33.61
2018-04-18T09:44:48.517Z,34.15
2018-04-18T09:47:22.282Z,34.60
2018-04-18T09:49:56.640Z,34.67
2018-04-18T09:52:30.555Z,34.80
2018-04-18T09:55:04.291Z,34.75
2018-04-18T09:57:36.396Z,34.74
2018-04-18T10:00:10.308Z,33.97
2018-04-18T10:02:44.027Z,34.50
2018-04-18T10:05:16.610Z,34.86
2018-04-18T10:07:49.786Z,34.86
2018-04-18T10:11:11.165Z,34.97
2018-04-18T10:13:44.680Z,34.86
2018-04-18T10:16:16.553Z,35.11
2018-04-18T10:18:49.986Z,35.08
2018-04-18T10:21:23.301Z,35.03
2018-04-18T10:23:56.356Z,35.16
2018-04-18T10:26:29.567Z,35.15
2018-04-18T10:29:02.567Z,35.06
2018-04-18T10:31:35.567Z,35.16
2018-04-18T10:34:09.131Z,35.36
2018-04-18T10:36:42.295Z,35.23
2018-04-18T10:39:15.638Z,35.25
2018-04-18T10:41:49.636Z,35.47
2018-04-18T10:44:22.787Z,35.54
2018-04-18T10:46:54.630Z,35.45
2018-04-18T10:49:26.597Z,35.46
2018-04-18T10:54:09.663Z,35.82
2018-04-18T10:56:42.729Z,35.35
2018-04-18T10:59:14.662Z,35.43
2018-04-18T11:01:46.650Z,35.61
2018-04-18T11:04:19.532Z,35.95
2018-04-18T11:06:53.560Z,35.68
2018-04-18T11:09:27.601Z,36.04
2018-04-18T11:12:01.585Z,35.82
2018-04-18T11:17:02.625Z,36.01
2018-04-18T11:19:34.621Z,36.00
2018-04-18T11:22:06.628Z,36.03
2018-04-18T11:24:38.547Z,36.08
2018-04-18T11:27:11.616Z,36.08
2018-04-18T11:29:45.314Z,36.25
2018-04-18T11:32:18.326Z,36.25
2018-04-18T11:34:51.546Z,36.24
2018-04-18T11:37:24.545Z,36.22
2018-04-18T11:39:58.552Z,36.55
2018-04-18T11:42:32.544Z,36.32
2018-04-18T11:45:06.284Z,36.13
2018-04-18T11:47:39.646Z,36.01
2018-04-18T11:50:11.938Z,36.21
2018-04-18T11:52:44.076Z,36.71
2018-04-18T11:55:18.123Z,36.73
2018-04-18T11:57:51.625Z,36.71
2018-04-18T12:00:24.599Z,36.56
2018-04-18T12:02:57.630Z,36.58
2018-04-18T12:05:29.470Z,36.68
2018-04-18T12:08:03.271Z,36.36
2018-04-18T12:10:36.547Z,36.66
2018-04-18T12:13:10.232Z,36.54
2018-04-18T12:18:34.558Z,37.14
2018-04-18T12:21:07.068Z,36.72
2018-04-18T12:23:40.609Z,36.84
2018-04-18T12:26:14.373Z,37.12
2018-04-18T12:28:47.650Z,37.18
2018-04-18T12:31:19.578Z,37.12
2018-04-18T12:33:52.633Z,37.10
2018-04-18T12:36:25.091Z,37.76
2018-04-18T12:38:58.621Z,36.84
2018-04-18T12:41:32.524Z,36.93
2018-04-18T12:44:06.289Z,37.37
2018-04-18T12:46:39.684Z,37.37
2018-04-18T12:49:11.703Z,37.18
2018-04-18T12:51:45.678Z,37.54
2018-04-18T12:54:17.701Z,37.45
2018-04-18T12:56:50.052Z,37.68
2018-04-18T12:59:23.680Z,37.51
2018-04-18T13:01:57.082Z,37.96
2018-04-18T13:04:30.685Z,37.50
2018-04-18T13:07:03.082Z,37.94
2018-04-18T13:09:36.561Z,38.05
2018-04-18T13:12:10.552Z,37.64
2018-04-18T13:14:43.651Z,37.98
2018-04-18T13:17:17.648Z,38.23
2018-04-18T13:19:49.654Z,38.06
2018-04-18T13:22:23.348Z,38.04
2018-04-18T13:24:56.926Z,38.17
2018-04-18T13:27:29.563Z,37.63
2018-04-18T13:30:05.064Z,37.70
2018-04-18T13:32:39.556Z,37.86
2018-04-18T13:35:13.614Z,37.96
2018-04-18T13:37:46.666Z,37.52
2018-04-18T13:40:19.724Z,38.13
2018-04-18T13:42:52.547Z,37.75
2018-04-18T13:45:25.674Z,37.88
2018-04-18T13:47:59.708Z,38.16
2018-04-18T13:50:32.582Z,38.12
2018-04-18T13:53:06.688Z,38.05
2018-04-18T13:55:39.585Z,38.02
2018-04-18T13:58:13.327Z,38.15
2018-04-18T14:00:46.656Z,38.38
2018-04-18T14:03:20.298Z,38.70
2018-04-18T14:05:53.785Z,38.67
2018-04-18T14:08:26.521Z,38.42
2018-04-18T14:10:59.663Z,37.80
2018-04-18T14:13:33.634Z,38.21
2018-04-18T14:16:06.105Z,38.47
2018-04-18T14:18:39.412Z,37.89
2018-04-18T14:21:13.760Z,38.45
2018-04-18T14:23:45.422Z,38.30
2018-04-18T14:26:18.661Z,38.46
2018-04-18T14:28:51.727Z,37.95
2018-04-18T14:31:23.541Z,38.10
2018-04-18T14:33:56.548Z,38.01
2018-04-18T14:36:29.751Z,38.24
2018-04-18T14:39:01.988Z,38.25
2018-04-18T14:41:35.545Z,38.06
2018-04-18T14:44:08.565Z,38.30
2018-04-18T14:46:41.539Z,38.36
2018-04-18T14:49:14.518Z,38.50
2018-04-18T14:51:47.523Z,38.63
2018-04-18T14:54:21.301Z,38.92
2018-04-18T14:56:54.633Z,38.81
2018-04-18T14:59:26.238Z,38.42
2018-04-18T15:01:59.266Z,38.49
2018-04-18T15:04:32.288Z,38.51
2018-04-18T15:07:05.265Z,38.90
2018-04-18T15:09:38.241Z,39.00
2018-04-18T15:12:11.732Z,38.97
2018-04-18T15:14:45.229Z,38.51
2018-04-18T15:17:18.312Z,38.33
2018-04-18T15:19:51.630Z,38.17
2018-04-18T15:22:26.451Z,38.92
2018-04-18T15:24:59.561Z,38.66
2018-04-18T15:27:32.615Z,38.81
2018-04-18T15:30:04.534Z,38.80
2018-04-18T15:32:37.928Z,38.66
2018-04-18T15:35:11.526Z,38.79
2018-04-18T15:37:44.611Z,38.41
2018-04-18T15:40:17.620Z,38.33
2018-04-18T15:42:51.124Z,38.63
2018-04-18T15:45:23.838Z,38.84
2018-04-18T15:47:57.498Z,38.78
2018-04-18T15:50:30.037Z,39.12
2018-04-18T15:53:03.525Z,38.87
2018-04-18T15:58:26.263Z,39.05
2018-04-18T16:01:00.000Z,38.99
2018-04-18T16:03:33.282Z,38.87
2018-04-18T16:06:06.262Z,38.67
2018-04-18T16:08:38.614Z,38.66
2018-04-18T16:15:45.541Z,38.96
2018-04-18T16:18:17.658Z,38.86
2018-04-18T16:20:49.538Z,38.58
2018-04-18T16:23:21.514Z,38.86
2018-04-18T16:25:53.549Z,38.87
2018-04-18T16:28:25.619Z,38.92
2018-04-18T16:30:56.392Z,38.87
2018-04-18T16:33:30.274Z,38.92
2018-04-18T16:36:02.515Z,38.97
2018-04-18T16:42:18.965Z,39.18
2018-04-18T16:44:51.660Z,38.95
2018-04-18T16:47:23.545Z,38.77
2018-04-18T16:49:55.296Z,39.16
2018-04-18T16:52:27.590Z,39.14
2018-04-18T16:55:00.427Z,39.25
2018-04-18T16:57:33.505Z,39.19
2018-04-18T17:00:06.521Z,39.15
2018-04-18T17:02:40.323Z,39.12
2018-04-18T17:05:13.268Z,39.06
2018-04-18T17:07:46.040Z,39.29
2018-04-18T17:11:32.534Z,39.26
2018-04-18T17:14:05.640Z,40.25
2018-04-18T17:16:37.535Z,40.94
2018-04-18T17:19:11.617Z,41.42
2018-04-18T17:21:44.605Z,41.05
2018-04-18T17:24:17.611Z,40.70
2018-04-18T17:28:46.641Z,40.28
2018-04-18T17:31:19.496Z,40.25
2018-04-18T17:33:53.282Z,40.06
2018-04-18T17:36:26.307Z,40.12
2018-04-18T17:38:59.304Z,40.31
2018-04-18T17:41:33.301Z,40.18
2018-04-18T17:44:05.693Z,39.71
2018-04-18T17:46:38.844Z,39.94
2018-04-18T17:49:10.508Z,39.71
2018-04-18T17:51:43.479Z,39.63
2018-04-18T17:54:16.477Z,38.67
2018-04-18T17:56:49.479Z,38.70
2018-04-18T17:59:22.472Z,38.80
2018-04-18T18:01:55.578Z,38.47
2018-04-18T18:04:28.584Z,38.86
2018-04-18T18:07:01.603Z,38.92
2018-04-18T18:09:34.553Z,38.13
2018-04-18T18:12:07.592Z,37.58
2018-04-18T18:14:40.486Z,37.68
2018-04-18T18:17:13.557Z,37.57
2018-04-18T18:19:46.560Z,38.17
2018-04-18T18:22:19.269Z,37.73
2018-04-18T18:24:52.311Z,37.83
2018-04-18T18:27:25.499Z,37.46
2018-04-18T18:29:58.483Z,37.15
2018-04-18T18:32:31.499Z,37.19
2018-04-18T18:35:04.993Z,36.30
2018-04-18T18:37:39.588Z,36.57
2018-04-18T18:40:13.487Z,36.83
2018-04-18T18:42:46.520Z,36.73
2018-04-18T18:45:20.489Z,36.45
2018-04-18T18:47:54.190Z,35.83
2018-04-18T18:50:27.549Z,35.86
2018-04-18T18:53:00.552Z,35.56
2018-04-18T18:55:32.480Z,35.59
2018-04-18T18:58:06.272Z,35.32
2018-04-18T19:00:39.488Z,35.15
2018-04-18T19:03:12.971Z,35.17
2018-04-18T19:05:46.263Z,34.70
2018-04-18T19:08:19.626Z,34.40
2018-04-18T19:10:51.548Z,34.25
2018-04-18T19:13:25.125Z,34.54
2018-04-18T19:15:58.624Z,34.37
2018-04-18T19:18:31.675Z,34.20
2018-04-18T19:21:03.726Z,33.77
2018-04-18T19:23:36.747Z,33.45
2018-04-18T19:26:08.377Z,33.36
2018-04-18T19:28:41.523Z,33.23
2018-04-18T19:31:15.055Z,32.87
2018-04-18T19:33:48.541Z,32.94
2018-04-18T19:36:21.623Z,32.89
2018-04-18T19:38:55.281Z,32.56
2018-04-18T19:41:28.281Z,32.50
2018-04-18T19:44:01.542Z,32.48
2018-04-18T19:46:34.647Z,32.46
2018-04-18T19:49:07.629Z,32.09
2018-04-18T19:51:40.655Z,31.83
2018-04-18T19:54:12.459Z,31.73
2018-04-18T19:56:46.563Z,31.52
2018-04-18T19:59:20.338Z,31.59
2018-04-18T20:01:53.680Z,31.48
2018-04-18T20:04:27.805Z,31.15
2018-04-18T20:07:01.421Z,31.32
2018-04-18T20:09:34.640Z,31.44
2018-04-18T20:12:06.584Z,31.16
2018-04-18T20:14:39.642Z,31.07
2018-04-18T20:17:11.545Z,30.87
2018-04-18T20:19:45.436Z,30.68
2018-04-18T20:22:18.633Z,30.67
2018-04-18T20:24:52.570Z,30.74
2018-04-18T20:27:26.577Z,30.34
2018-04-18T20:29:59.615Z,30.52
2018-04-18T20:32:32.563Z,30.40
2018-04-18T20:35:06.253Z,30.63
2018-04-18T20:37:39.327Z,29.96
2018-04-18T20:40:12.462Z,30.05
2018-04-18T20:43:01.737Z,30.21
2018-04-18T20:45:34.660Z,30.08
2018-04-18T20:48:06.542Z,30.10
2018-04-18T20:50:40.293Z,30.02
2018-04-18T20:53:13.511Z,29.77
2018-04-18T20:55:46.310Z,29.79
2018-04-18T20:58:19.360Z,29.69
2018-04-18T21:00:53.273Z,29.74
2018-04-18T21:03:26.646Z,29.67
2018-04-18T21:05:59.496Z,29.66
2018-04-18T21:08:32.909Z,29.71
2018-04-18T21:11:05.529Z,29.66
2018-04-18T21:13:38.616Z,29.68
2018-04-18T21:16:10.104Z,29.68
2018-04-18T21:18:43.269Z,29.74
2018-04-18T21:21:17.715Z,29.73
2018-04-18T21:23:49.996Z,29.76
2018-04-18T21:27:31.610Z,29.85
2018-04-18T21:30:03.547Z,29.71
2018-04-18T21:32:36.598Z,29.80
2018-04-18T21:35:08.379Z,29.73
2018-04-18T21:37:41.595Z,29.68
2018-04-18T21:40:13.515Z,29.63
2018-04-18T21:42:46.973Z,29.56
2018-04-18T21:45:20.513Z,29.79
2018-04-18T21:47:53.587Z,29.64
2018-04-18T21:50:25.521Z,29.84
2018-04-18T21:52:58.514Z,29.76
2018-04-18T21:55:31.527Z,29.95
2018-04-18T21:58:04.650Z,29.93
2018-04-18T22:00:36.777Z,29.88
2018-04-18T22:03:10.455Z,29.93
2018-04-18T22:05:43.623Z,29.96
2018-04-18T22:08:15.564Z,30.23
2018-04-18T22:10:48.543Z,30.16
2018-04-18T22:13:21.566Z,30.29
2018-04-18T22:15:54.595Z,30.33
2018-04-18T22:18:27.878Z,30.42
2018-04-18T22:21:00.497Z,30.30
2018-04-18T22:23:34.332Z,30.40
2018-04-18T22:26:06.538Z,30.36
2018-04-18T22:28:38.516Z,30.41
2018-04-18T22:33:28.513Z,30.44
2018-04-18T22:36:02.529Z,30.41
2018-04-18T22:39:45.510Z,30.35
2018-04-18T22:42:17.293Z,30.29
2018-04-18T22:44:49.512Z,30.40
2018-04-18T22:47:20.565Z,30.42
2018-04-18T22:49:52.646Z,30.59
2018-04-18T22:52:24.523Z,30.24
2018-04-18T22:54:56.623Z,30.04
2018-04-18T22:57:27.565Z,30.87
2018-04-18T22:59:59.645Z,30.76
2018-04-18T23:02:31.640Z,31.40
2018-04-18T23:05:02.563Z,31.56
2018-04-18T23:09:47.595Z,31.33
2018-04-18T23:12:19.625Z,31.31
2018-04-18T23:14:50.562Z,28.02
2018-04-18T23:17:22.619Z,27.97
2018-04-18T23:22:18.666Z,28.20
2018-04-18T23:24:49.553Z,28.35
2018-04-18T23:27:21.633Z,27.62
2018-04-18T23:32:53.285Z,28.22
2018-04-18T23:35:25.769Z,27.76
2018-04-18T23:37:56.569Z,27.02
2018-04-18T23:40:29.716Z,28.28
2018-04-18T23:43:02.556Z,30.19
2018-04-18T23:45:35.682Z,27.95
2018-04-18T23:54:11.738Z,26.38
2018-04-18T23:56:43.580Z,25.80
2018-04-18T23:59:14.628Z,23.94
